Time;durP1;ratioP1;P1;durP2;ratioP2;P2;SDS_P1;SDS_P2;PMS_P1;PMS_P2;Temp;Humidity;BMP_temperature;BMP_pressure;BME280_temperature;BME280_humidity;BME280_pressure;Samples;Min_cycle;Max_cycle;Signal;HPM_P1;HPM_P2
2023/12/25 00:01:05;;;;;;;3.30;1.90;;;19.50;81.80;;;;;;5044008;28;20430;-78
2023/12/25 00:03:33;;;;;;;5.60;2.10;;;19.50;82.50;;;;;;5048240;28;20542;-76
2023/12/25 00:06:14;;;;;;;6.53;2.20;;;19.50;81.90;;;;;;5049423;28;21017;-78
2023/12/25 00:08:41;;;;;;;4.67;1.93;;;19.50;81.90;;;;;;5053062;28;20940;-77
2023/12/25 00:11:11;;;;;;;2.40;1.93;;;19.50;81.70;;;;;;5048202;28;20954;-77
2023/12/25 00:13:39;;;;;;;5.10;1.90;;;19.50;81.80;;;;;;5044726;28;21015;-76
2023/12/25 00:16:07;;;;;;;5.17;1.80;;;19.50;81.90;;;;;;5051888;28;21008;-79
2023/12/25 00:18:35;;;;;;;3.87;1.77;;;19.50;81.90;;;;;;5050489;28;20443;-75
2023/12/25 00:21:04;;;;;;;2.13;1.60;;;19.50;81.60;;;;;;5048085;28;20447;-76
2023/12/25 00:23:32;;;;;;;5.80;2.00;;;19.50;81.90;;;;;;5051109;28;20471;-76
2023/12/25 00:26:00;;;;;;;2.03;1.80;;;19.50;81.80;;;;;;5047949;28;20470;-75
2023/12/25 00:28:30;;;;;;;4.60;2.03;;;19.50;81.40;;;;;;5045517;28;20572;-75
2023/12/25 00:30:58;;;;;;;2.60;1.70;;;19.50;81.60;;;;;;5049533;28;20454;-76
2023/12/25 00:33:26;;;;;;;9.27;2.30;;;19.50;81.30;;;;;;5051613;28;20448;-77
2023/12/25 00:35:54;;;;;;;3.83;2.20;;;19.50;81.50;;;;;;5050966;28;20496;-78
2023/12/25 00:38:22;;;;;;;5.30;2.13;;;19.50;81.70;;;;;;5051283;28;20470;-77
2023/12/25 00:40:50;;;;;;;2.67;1.80;;;19.50;81.40;;;;;;5052305;28;20439;-77
2023/12/25 00:43:18;;;;;;;1.97;1.57;;;19.50;81.50;;;;;;5051762;28;20504;-77
2023/12/25 00:45:47;;;;;;;6.83;2.33;;;19.50;81.40;;;;;;5051408;28;20484;-78
2023/12/25 00:48:15;;;;;;;6.70;1.73;;;19.50;81.20;;;;;;5049371;28;20438;-78
2023/12/25 00:50:43;;;;;;;3.63;1.80;;;19.50;81.20;;;;;;5044245;28;20451;-77
2023/12/25 00:53:12;;;;;;;3.73;1.70;;;19.50;81.20;;;;;;5046016;28;20424;-77
2023/12/25 00:55:40;;;;;;;5.13;2.07;;;19.50;80.90;;;;;;5062628;22;20529;-77
2023/12/25 00:58:08;;;;;;;6.00;2.00;;;19.50;80.80;;;;;;5034608;28;20439;-78
2023/12/25 01:00:36;;;;;;;4.87;1.30;;;19.50;81.20;;;;;;5036177;28;20410;-77
2023/12/25 01:03:05;;;;;;;4.00;1.90;;;19.50;81.20;;;;;;5036600;28;20551;-77
2023/12/25 01:05:33;;;;;;;4.53;2.17;;;19.50;81.20;;;;;;5039824;28;20464;-78
2023/12/25 01:08:01;;;;;;;7.13;1.97;;;19.50;80.60;;;;;;5047357;28;20442;-80
2023/12/25 01:10:29;;;;;;;1.67;1.53;;;19.50;80.80;;;;;;5042250;28;20500;-76
2023/12/25 01:12:57;;;;;;;3.07;1.90;;;19.50;81.10;;;;;;5033252;28;20532;-76
2023/12/25 01:15:26;;;;;;;3.40;1.90;;;19.50;80.80;;;;;;5032913;28;20575;-77
2023/12/25 01:17:54;;;;;;;2.13;1.93;;;19.50;80.60;;;;;;5039141;28;20469;-79
2023/12/25 01:20:24;;;;;;;3.83;1.80;;;19.50;80.90;;;;;;5042171;28;20446;-78
2023/12/25 01:22:52;;;;;;;3.13;1.80;;;19.50;81.00;;;;;;5032250;28;20534;-78
2023/12/25 01:25:20;;;;;;;4.17;2.03;;;19.50;80.50;;;;;;5049388;28;20462;-80
2023/12/25 01:27:48;;;;;;;3.50;2.03;;;19.50;80.40;;;;;;5039834;28;20417;-78
2023/12/25 01:30:17;;;;;;;3.00;2.00;;;19.50;80.80;;;;;;5048049;28;20446;-77
2023/12/25 01:32:45;;;;;;;4.53;1.73;;;19.50;80.50;;;;;;5051604;28;20437;-78
2023/12/25 01:35:13;;;;;;;3.77;2.17;;;19.50;80.70;;;;;;5044929;28;20487;-77
2023/12/25 01:37:42;;;;;;;2.70;1.73;;;19.50;80.50;;;;;;5041791;28;21048;-77
2023/12/25 01:40:11;;;;;;;2.90;1.90;;;19.50;80.60;;;;;;5050746;28;20453;-77
2023/12/25 01:42:42;;;;;;;3.10;2.20;;;19.50;80.70;;;;;;5049173;28;20469;-77
2023/12/25 01:45:10;;;;;;;3.73;2.33;;;19.50;80.20;;;;;;5032757;28;20525;-79
2023/12/25 01:47:38;;;;;;;4.60;1.83;;;19.50;80.60;;;;;;5047288;28;20450;-77
2023/12/25 01:50:07;;;;;;;4.70;2.10;;;19.50;80.60;;;;;;5051032;28;20475;-77
2023/12/25 01:52:36;;;;;;;5.40;2.20;;;19.50;80.40;;;;;;5042879;28;20538;-78
2023/12/25 01:55:06;;;;;;;3.53;2.30;;;19.50;80.70;;;;;;5038403;28;20504;-79
2023/12/25 01:57:34;;;;;;;3.33;1.90;;;19.50;80.70;;;;;;5042455;28;20409;-77
2023/12/25 02:00:02;;;;;;;3.33;2.10;;;19.50;80.70;;;;;;5039554;28;20463;-79
2023/12/25 02:02:30;;;;;;;2.20;1.80;;;19.50;80.20;;;;;;5050819;28;20435;-79
2023/12/25 02:04:58;;;;;;;3.70;2.20;;;19.50;80.50;;;;;;5045726;28;20473;-77
2023/12/25 02:07:26;;;;;;;4.93;2.47;;;19.50;80.30;;;;;;5051525;28;20482;-77
2023/12/25 02:09:53;;;;;;;8.23;2.40;;;19.50;79.90;;;;;;5043245;28;20533;-78
2023/12/25 02:12:22;;;;;;;3.20;2.17;;;19.50;79.90;;;;;;5050535;28;20525;-78
2023/12/25 02:14:50;;;;;;;4.47;2.17;;;19.50;80.00;;;;;;5042340;28;20794;-78
2023/12/25 02:17:18;;;;;;;4.47;2.30;;;19.50;80.20;;;;;;5045097;28;20508;-79
2023/12/25 02:19:46;;;;;;;2.10;1.90;;;19.50;80.00;;;;;;5046068;28;20450;-77
2023/12/25 02:22:14;;;;;;;5.23;2.50;;;19.50;80.20;;;;;;5045876;28;20447;-77
2023/12/25 02:24:45;;;;;;;5.87;2.00;;;19.50;79.70;;;;;;5051069;28;20567;-77
2023/12/25 02:27:15;;;;;;;5.07;2.33;;;19.50;80.10;;;;;;5041554;28;20885;-79
2023/12/25 02:29:43;;;;;;;3.07;2.00;;;19.50;79.70;;;;;;5040367;28;20421;-78
2023/12/25 02:32:11;;;;;;;6.97;2.33;;;19.50;79.70;;;;;;5040365;28;20513;-79
2023/12/25 02:34:39;;;;;;;3.90;2.00;;;19.40;80.30;;;;;;5037784;28;20508;-79
2023/12/25 02:37:07;;;;;;;4.40;2.40;;;19.50;80.10;;;;;;5026067;28;20467;-77
2023/12/25 02:39:35;;;;;;;3.30;2.03;;;19.50;79.60;;;;;;5039322;28;20526;-77
2023/12/25 02:42:03;;;;;;;2.70;1.83;;;19.50;79.90;;;;;;5037984;28;20485;-79
2023/12/25 02:44:32;;;;;;;5.57;1.73;;;19.50;79.40;;;;;;5042021;28;20436;-77
2023/12/25 02:47:00;;;;;;;1.50;1.40;;;19.50;79.70;;;;;;5040176;28;20466;-78
2023/12/25 02:49:29;;;;;;;4.40;1.80;;;19.50;80.00;;;;;;5042068;28;20437;-77
2023/12/25 02:51:57;;;;;;;3.70;1.90;;;19.50;79.70;;;;;;5036200;28;20448;-77
2023/12/25 02:54:25;;;;;;;2.33;1.87;;;19.50;79.60;;;;;;5041250;28;20490;-77
2023/12/25 02:56:53;;;;;;;5.60;2.00;;;19.50;79.70;;;;;;5037265;28;20474;-78
2023/12/25 02:59:21;;;;;;;3.37;1.70;;;19.50;79.30;;;;;;5037758;28;20534;-79
2023/12/25 03:01:50;;;;;;;2.57;1.70;;;19.50;79.20;;;;;;5036253;28;20454;-80
2023/12/25 03:04:18;;;;;;;1.97;1.70;;;19.50;79.60;;;;;;5036933;28;20487;-77
2023/12/25 03:06:46;;;;;;;5.83;1.90;;;19.50;79.60;;;;;;5037611;28;20490;-77
2023/12/25 03:09:14;;;;;;;3.43;1.97;;;19.50;79.70;;;;;;5040262;28;20479;-78
2023/12/25 03:11:41;;;;;;;2.23;1.70;;;19.50;79.50;;;;;;5040077;28;20548;-79
2023/12/25 03:14:10;;;;;;;3.77;1.70;;;19.50;79.50;;;;;;5038318;28;20427;-81
2023/12/25 03:16:37;;;;;;;3.73;1.70;;;19.50;79.00;;;;;;5033353;28;20474;-78
2023/12/25 03:19:07;;;;;;;2.87;1.80;;;19.40;79.00;;;;;;5049708;28;20529;-78
2023/12/25 03:21:35;;;;;;;1.97;1.40;;;19.40;79.50;;;;;;5034334;28;20435;-77
2023/12/25 03:24:03;;;;;;;1.93;1.83;;;19.40;78.70;;;;;;5037049;28;20417;-78
2023/12/25 03:26:32;;;;;;;6.77;2.20;;;19.40;79.40;;;;;;5049669;28;20904;-78
2023/12/25 03:28:59;;;;;;;7.70;1.87;;;19.40;79.20;;;;;;5049834;28;20473;-78
2023/12/25 03:31:27;;;;;;;2.10;1.67;;;19.40;79.20;;;;;;5034170;28;20519;-77
2023/12/25 03:33:58;;;;;;;4.30;1.50;;;19.40;79.40;;;;;;5045465;28;20490;-80
2023/12/25 03:36:27;;;;;;;4.57;2.17;;;19.40;79.40;;;;;;5045552;28;20882;-77
2023/12/25 03:38:55;;;;;;;4.97;1.63;;;19.40;78.90;;;;;;5041849;28;20521;-78
2023/12/25 03:41:24;;;;;;;3.63;1.90;;;19.40;78.60;;;;;;5035265;28;20438;-78
2023/12/25 03:43:52;;;;;;;4.53;1.47;;;19.30;79.20;;;;;;5037276;28;20455;-80
2023/12/25 03:46:20;;;;;;;6.00;1.80;;;19.40;79.30;;;;;;5043315;28;20464;-78
2023/12/25 03:48:50;;;;;;;2.10;1.90;;;19.30;78.70;;;;;;5043265;28;20527;-78
2023/12/25 03:51:18;;;;;;;3.20;1.80;;;19.30;78.80;;;;;;5050640;28;20460;-79
2023/12/25 03:53:47;;;;;;;2.83;1.93;;;19.40;79.10;;;;;;5044802;28;20514;-79
2023/12/25 03:56:16;;;;;;;5.40;1.73;;;19.40;78.80;;;;;;5044127;28;20481;-76
2023/12/25 03:58:45;;;;;;;2.63;1.80;;;19.30;78.50;;;;;;5038041;28;20458;-77
2023/12/25 04:01:13;;;;;;;3.40;1.50;;;19.30;79.00;;;;;;5038456;28;20426;-80
2023/12/25 04:03:41;;;;;;;2.20;1.60;;;19.30;78.50;;;;;;5042725;28;20447;-80
2023/12/25 04:06:09;;;;;;;3.53;1.63;;;19.30;78.90;;;;;;5043695;28;21016;-78
2023/12/25 04:08:37;;;;;;;4.30;1.50;;;19.30;78.60;;;;;;5050954;28;20474;-81
2023/12/25 04:11:06;;;;;;;3.87;1.63;;;19.30;78.60;;;;;;5045414;28;20442;-75
2023/12/25 04:13:35;;;;;;;3.93;1.60;;;19.30;79.20;;;;;;5045216;28;20439;-77
2023/12/25 04:16:03;;;;;;;5.77;2.00;;;19.30;79.10;;;;;;5042079;28;20475;-78
2023/12/25 04:18:31;;;;;;;2.37;1.60;;;19.30;78.80;;;;;;5041690;28;20458;-77
2023/12/25 04:20:59;;;;;;;3.57;1.40;;;19.30;78.10;;;;;;5036490;28;20425;-78
2023/12/25 04:23:27;;;;;;;4.73;1.70;;;19.30;78.70;;;;;;5040744;28;20815;-79
2023/12/25 04:25:55;;;;;;;4.00;1.73;;;19.30;78.70;;;;;;5040223;28;20533;-79
2023/12/25 04:28:25;;;;;;;1.60;1.50;;;19.30;78.50;;;;;;5039822;28;20454;-78
2023/12/25 04:30:53;;;;;;;2.00;1.40;;;19.30;78.40;;;;;;5037112;28;20446;-78
2023/12/25 04:33:21;;;;;;;4.43;1.57;;;19.30;78.60;;;;;;5046763;28;20446;-78
2023/12/25 04:35:48;;;;;;;2.97;1.73;;;19.20;78.30;;;;;;5040261;28;20475;-77
2023/12/25 04:38:16;;;;;;;3.00;1.60;;;19.20;78.30;;;;;;5036403;28;20410;-77
2023/12/25 04:40:44;;;;;;;2.90;1.80;;;19.20;78.00;;;;;;5052251;28;20451;-78
2023/12/25 04:43:12;;;;;;;7.37;1.80;;;19.20;78.40;;;;;;5049633;28;20502;-81
2023/12/25 04:45:42;;;;;;;3.90;1.63;;;19.20;78.40;;;;;;5045636;28;20498;-80
2023/12/25 04:48:10;;;;;;;3.50;1.60;;;19.10;78.10;;;;;;5042384;28;20421;-75
2023/12/25 04:50:39;;;;;;;3.27;1.70;;;19.10;78.20;;;;;;5051988;28;20538;-76
2023/12/25 04:53:07;;;;;;;2.50;1.60;;;19.10;78.00;;;;;;5033826;28;20494;-78
2023/12/25 04:55:35;;;;;;;2.90;1.40;;;19.10;78.10;;;;;;5039836;28;20445;-77
2023/12/25 04:58:03;;;;;;;2.83;1.50;;;19.00;77.90;;;;;;5040599;28;20878;-79
2023/12/25 05:00:32;;;;;;;2.60;1.30;;;19.00;78.30;;;;;;5033482;28;20444;-79
2023/12/25 05:03:03;;;;;;;7.50;1.50;;;19.10;78.50;;;;;;5036818;28;20451;-78
2023/12/25 05:05:31;;;;;;;3.90;1.80;;;19.00;78.30;;;;;;5036956;28;20470;-77
2023/12/25 05:07:59;;;;;;;4.63;1.80;;;19.00;78.30;;;;;;5038408;28;20501;-77
2023/12/25 05:10:27;;;;;;;3.43;1.70;;;19.00;78.00;;;;;;5040368;28;20484;-77
2023/12/25 05:12:55;;;;;;;7.83;1.90;;;19.10;78.30;;;;;;5050520;28;20409;-78
2023/12/25 05:15:23;;;;;;;4.20;1.87;;;19.00;78.20;;;;;;5038645;28;20460;-76
2023/12/25 05:17:52;;;;;;;3.20;1.60;;;19.00;78.20;;;;;;5038547;28;20482;-77
2023/12/25 05:20:22;;;;;;;3.70;1.90;;;19.00;78.30;;;;;;5038927;28;20451;-77
2023/12/25 05:22:50;;;;;;;4.87;1.87;;;19.00;78.10;;;;;;5041819;28;20451;-78
2023/12/25 05:25:18;;;;;;;7.70;1.83;;;19.00;78.30;;;;;;5039792;28;20539;-76
2023/12/25 05:27:45;;;;;;;3.93;1.83;;;19.00;78.20;;;;;;5036844;28;20518;-77
2023/12/25 05:30:14;;;;;;;4.63;1.57;;;19.00;78.60;;;;;;5042692;28;20439;-77
2023/12/25 05:32:41;;;;;;;2.40;1.50;;;19.00;78.70;;;;;;5037312;28;20450;-76
2023/12/25 05:35:10;;;;;;;2.53;1.57;;;19.00;78.70;;;;;;5033175;28;20459;-78
2023/12/25 05:37:39;;;;;;;1.60;1.50;;;19.00;78.50;;;;;;5047367;28;20474;-78
2023/12/25 05:40:08;;;;;;;3.57;1.47;;;19.00;78.70;;;;;;5039288;28;20519;-78
2023/12/25 05:42:36;;;;;;;3.90;1.50;;;19.00;78.30;;;;;;5038157;28;20427;-80
2023/12/25 05:45:04;;;;;;;4.13;1.70;;;19.00;78.90;;;;;;5040580;28;20555;-79
2023/12/25 05:47:32;;;;;;;2.47;1.60;;;19.00;78.80;;;;;;5034307;28;20432;-78
2023/12/25 05:50:00;;;;;;;4.13;1.63;;;19.00;78.70;;;;;;5035312;28;20530;-75
2023/12/25 05:52:27;;;;;;;2.27;1.27;;;19.00;78.60;;;;;;5044613;28;20578;-76
2023/12/25 05:54:57;;;;;;;2.90;1.40;;;19.00;78.10;;;;;;5035801;28;20475;-79
2023/12/25 05:57:25;;;;;;;2.80;1.60;;;19.00;78.90;;;;;;5039635;28;20475;-77
2023/12/25 05:59:53;;;;;;;2.50;1.30;;;19.00;78.40;;;;;;5040347;28;20478;-76
2023/12/25 06:02:21;;;;;;;3.80;1.43;;;19.00;78.80;;;;;;5032199;28;20455;-77
2023/12/25 06:04:49;;;;;;;4.77;1.80;;;19.00;78.40;;;;;;5050239;28;20517;-78
2023/12/25 06:07:17;;;;;;;1.43;1.30;;;19.00;78.50;;;;;;5037642;28;20463;-76
2023/12/25 06:09:45;;;;;;;4.47;1.63;;;19.00;79.40;;;;;;5041434;28;20442;-78
2023/12/25 06:12:16;;;;;;;2.93;1.40;;;19.00;78.40;;;;;;5043843;28;20516;-75
2023/12/25 06:14:43;;;;;;;3.23;1.27;;;19.00;78.80;;;;;;5038655;28;20510;-78
2023/12/25 06:17:11;;;;;;;3.23;1.30;;;19.00;78.60;;;;;;5042293;28;20547;-77
2023/12/25 06:19:39;;;;;;;5.50;1.47;;;19.00;78.80;;;;;;5042862;28;20474;-80
2023/12/25 06:22:07;;;;;;;3.40;1.30;;;19.00;78.90;;;;;;5034600;28;20459;-75
2023/12/25 06:24:35;;;;;;;1.53;1.37;;;19.00;78.70;;;;;;5044220;28;20543;-78
2023/12/25 06:27:03;;;;;;;3.17;1.50;;;19.00;79.00;;;;;;5036806;28;20460;-78
2023/12/25 06:29:33;;;;;;;5.60;1.57;;;19.00;78.50;;;;;;5049361;28;20952;-77
2023/12/25 06:32:00;;;;;;;4.03;1.60;;;19.00;78.60;;;;;;5042426;28;20409;-76
2023/12/25 06:34:28;;;;;;;2.80;1.50;;;19.00;78.50;;;;;;5046484;28;20500;-80
2023/12/25 06:36:56;;;;;;;4.77;1.67;;;19.00;78.40;;;;;;5038573;28;20478;-78
2023/12/25 06:39:24;;;;;;;1.60;1.20;;;18.90;78.70;;;;;;5039707;28;20499;-77
2023/12/25 06:41:51;;;;;;;4.23;1.77;;;18.90;78.20;;;;;;5042131;28;20435;-82
2023/12/25 06:44:19;;;;;;;2.03;1.63;;;18.90;78.20;;;;;;5043287;28;20462;-77
2023/12/25 06:46:49;;;;;;;3.40;1.40;;;18.90;78.70;;;;;;5038094;28;20479;-79
2023/12/25 06:49:17;;;;;;;2.57;1.40;;;18.90;78.60;;;;;;5037405;28;20470;-75
2023/12/25 06:51:46;;;;;;;6.47;1.70;;;18.90;78.60;;;;;;5049568;28;20438;-78
2023/12/25 06:54:14;;;;;;;3.17;1.80;;;18.90;78.40;;;;;;5034388;28;20434;-75
2023/12/25 06:56:42;;;;;;;4.10;1.50;;;18.90;78.20;;;;;;5064762;22;20540;-76
2023/12/25 06:59:10;;;;;;;3.07;1.50;;;18.90;78.30;;;;;;5046059;28;20434;-75
2023/12/25 07:01:37;;;;;;;3.07;1.50;;;18.90;78.50;;;;;;5031176;28;20941;-75
2023/12/25 07:04:09;;;;;;;3.27;1.70;;;18.90;78.60;;;;;;5036039;28;20519;-74
2023/12/25 07:06:37;;;;;;;2.27;1.33;;;18.90;78.50;;;;;;5037736;28;20491;-75
2023/12/25 07:09:06;;;;;;;3.20;1.63;;;18.90;78.20;;;;;;5039588;28;20451;-75
2023/12/25 07:11:34;;;;;;;2.90;1.80;;;18.90;78.50;;;;;;5045429;28;20513;-75
2023/12/25 07:14:02;;;;;;;1.97;1.67;;;18.90;78.40;;;;;;5042709;28;20462;-75
2023/12/25 07:16:29;;;;;;;5.23;1.40;;;18.90;78.00;;;;;;5049970;28;20530;-75
2023/12/25 07:18:57;;;;;;;3.70;1.50;;;18.90;78.30;;;;;;5040657;28;20475;-75
2023/12/25 07:21:27;;;;;;;1.20;1.10;;;18.80;78.60;;;;;;5041782;28;20476;-74
2023/12/25 07:23:56;;;;;;;2.23;1.50;;;18.90;78.00;;;;;;5042489;28;20446;-75
2023/12/25 07:26:24;;;;;;;4.30;1.50;;;18.80;78.40;;;;;;5046192;28;20570;-75
2023/12/25 07:28:52;;;;;;;2.83;1.30;;;18.90;78.60;;;;;;5041712;28;20412;-75
2023/12/25 07:31:21;;;;;;;2.10;1.37;;;18.90;78.70;;;;;;5038540;28;20440;-75
2023/12/25 07:33:50;;;;;;;2.00;1.20;;;18.90;78.00;;;;;;5036038;28;20516;-74
2023/12/25 07:36:18;;;;;;;2.53;1.50;;;18.90;78.10;;;;;;5036193;28;20814;-75
2023/12/25 07:38:48;;;;;;;1.80;1.40;;;18.80;78.50;;;;;;5036289;28;20471;-75
2023/12/25 07:41:16;;;;;;;3.20;1.77;;;18.90;77.90;;;;;;5040856;28;20431;-75
2023/12/25 07:43:44;;;;;;;4.00;1.67;;;18.80;78.40;;;;;;5040081;28;20492;-75
2023/12/25 07:46:12;;;;;;;2.03;1.30;;;18.90;78.00;;;;;;5041727;28;20490;-75
2023/12/25 07:48:40;;;;;;;1.63;1.30;;;18.90;78.30;;;;;;5049404;28;20524;-75
2023/12/25 07:51:09;;;;;;;4.80;1.47;;;18.90;77.90;;;;;;5033647;28;21016;-75
2023/12/25 07:53:37;;;;;;;2.00;1.57;;;18.80;78.00;;;;;;5031211;28;20486;-75
2023/12/25 07:56:06;;;;;;;4.83;1.43;;;18.80;78.30;;;;;;5033298;28;20485;-74
2023/12/25 07:58:35;;;;;;;4.10;1.57;;;18.90;78.20;;;;;;5035707;28;20525;-75
2023/12/25 08:01:03;;;;;;;1.83;1.50;;;18.90;78.00;;;;;;5039358;28;20553;-76
2023/12/25 08:03:31;;;;;;;1.53;1.40;;;18.80;78.50;;;;;;5033109;28;20447;-75
2023/12/25 08:06:00;;;;;;;4.10;1.60;;;18.90;78.30;;;;;;5034115;28;20446;-75
2023/12/25 08:08:28;;;;;;;1.73;1.50;;;18.90;78.40;;;;;;5036284;28;20448;-75
2023/12/25 08:10:56;;;;;;;2.60;1.40;;;18.90;78.20;;;;;;5031852;28;20448;-75
2023/12/25 08:13:26;;;;;;;5.13;1.80;;;18.90;78.30;;;;;;5044658;28;20533;-75
2023/12/25 08:15:54;;;;;;;4.10;1.67;;;18.90;78.00;;;;;;5046688;28;20516;-75
2023/12/25 08:18:22;;;;;;;4.80;2.00;;;18.90;78.30;;;;;;5045527;28;20471;-75
2023/12/25 08:20:50;;;;;;;3.40;2.03;;;18.90;78.50;;;;;;5032462;28;20546;-75
2023/12/25 08:23:19;;;;;;;2.90;1.90;;;18.90;78.00;;;;;;5041921;28;20466;-76
2023/12/25 08:25:47;;;;;;;3.83;1.90;;;18.90;78.40;;;;;;5042421;28;20455;-76
2023/12/25 08:28:16;;;;;;;4.40;1.77;;;18.90;78.00;;;;;;5042446;28;20434;-76
2023/12/25 08:30:45;;;;;;;3.70;2.07;;;18.90;77.80;;;;;;5037287;28;20467;-76
2023/12/25 08:33:13;;;;;;;2.43;1.60;;;18.90;78.00;;;;;;5039204;28;20514;-76
2023/12/25 08:35:42;;;;;;;1.97;1.60;;;18.90;77.80;;;;;;5045465;28;20493;-76
2023/12/25 08:38:10;;;;;;;4.70;1.57;;;19.00;78.30;;;;;;5051796;28;20470;-76
2023/12/25 08:40:38;;;;;;;4.10;1.87;;;19.00;77.90;;;;;;5037787;28;20502;-76
2023/12/25 08:43:06;;;;;;;3.07;2.03;;;19.00;77.80;;;;;;5044206;28;20496;-76
2023/12/25 08:45:34;;;;;;;4.47;2.03;;;19.00;78.20;;;;;;5047089;28;20486;-75
2023/12/25 08:48:04;;;;;;;2.00;1.90;;;19.00;77.80;;;;;;5039457;28;20474;-76
2023/12/25 08:50:32;;;;;;;4.60;2.10;;;19.00;78.10;;;;;;5035733;28;20456;-76
2023/12/25 08:53:00;;;;;;;4.27;1.93;;;19.00;78.00;;;;;;5038915;28;20462;-76
2023/12/25 08:55:28;;;;;;;2.63;1.43;;;19.00;77.80;;;;;;5050631;28;20460;-76
2023/12/25 08:57:56;;;;;;;2.20;1.80;;;19.00;77.90;;;;;;5040523;28;20506;-76
2023/12/25 09:00:24;;;;;;;5.30;1.80;;;19.00;77.60;;;;;;5048821;28;20510;-75
2023/12/25 09:02:51;;;;;;;2.90;1.90;;;19.00;77.90;;;;;;5045272;28;20533;-76
2023/12/25 09:05:21;;;;;;;3.93;2.10;;;19.00;78.00;;;;;;5037950;28;20459;-76
2023/12/25 09:07:49;;;;;;;3.00;1.87;;;19.00;77.60;;;;;;5036062;28;20487;-76
2023/12/25 09:10:17;;;;;;;4.50;1.60;;;19.00;77.70;;;;;;5042770;28;20485;-75
2023/12/25 09:12:45;;;;;;;6.43;1.90;;;19.10;78.00;;;;;;5043543;28;20443;-75
2023/12/25 09:15:12;;;;;;;3.27;1.83;;;19.10;77.80;;;;;;5047783;28;20493;-75
2023/12/25 09:17:40;;;;;;;4.30;2.30;;;19.10;77.70;;;;;;5047560;28;20430;-76
2023/12/25 09:20:09;;;;;;;4.40;1.93;;;19.10;77.80;;;;;;5039052;28;20451;-75
2023/12/25 09:22:39;;;;;;;1.77;1.67;;;19.20;77.60;;;;;;5051337;28;20465;-76
2023/12/25 09:25:08;;;;;;;4.93;1.93;;;19.20;77.60;;;;;;5042207;28;20483;-76
2023/12/25 09:27:36;;;;;;;2.83;2.00;;;19.20;77.80;;;;;;5048216;28;20500;-75
2023/12/25 09:30:04;;;;;;;3.03;2.13;;;19.30;77.80;;;;;;5053809;28;20462;-76
2023/12/25 09:32:33;;;;;;;1.90;1.70;;;19.30;77.50;;;;;;5059634;28;20439;-76
2023/12/25 09:35:01;;;;;;;2.60;2.00;;;19.30;77.40;;;;;;5053960;28;20969;-75
2023/12/25 09:37:29;;;;;;;2.20;1.87;;;19.40;77.10;;;;;;5056370;28;20448;-75
2023/12/25 09:39:59;;;;;;;3.37;2.10;;;19.30;77.60;;;;;;5047331;28;20494;-75
2023/12/25 09:42:27;;;;;;;3.40;2.00;;;19.30;77.10;;;;;;5064390;28;20446;-75
2023/12/25 09:44:56;;;;;;;4.93;1.80;;;19.40;77.40;;;;;;5065320;28;20442;-75
2023/12/25 09:47:24;;;;;;;2.27;1.80;;;19.40;77.40;;;;;;5059766;28;20446;-76
2023/12/25 09:49:53;;;;;;;5.90;2.30;;;19.40;77.60;;;;;;5060463;28;20438;-75
2023/12/25 09:52:21;;;;;;;3.67;2.00;;;19.50;77.40;;;;;;5058480;28;20443;-75
2023/12/25 09:54:50;;;;;;;4.23;2.10;;;19.50;78.00;;;;;;5057508;28;20477;-76
2023/12/25 09:57:19;;;;;;;3.50;2.10;;;19.60;77.40;;;;;;5068527;28;20438;-77
2023/12/25 09:59:49;;;;;;;4.30;2.17;;;19.70;77.60;;;;;;5067163;28;20494;-76
2023/12/25 10:02:17;;;;;;;4.47;1.90;;;19.70;77.50;;;;;;5065145;28;20466;-76
2023/12/25 10:04:45;;;;;;;4.80;2.00;;;19.80;77.80;;;;;;5044874;28;20585;-75
2023/12/25 10:07:13;;;;;;;3.20;2.23;;;19.90;77.50;;;;;;5047429;28;20466;-74
2023/12/25 10:09:42;;;;;;;2.70;2.10;;;20.10;77.90;;;;;;5049513;28;20504;-76
2023/12/25 10:12:10;;;;;;;4.63;2.23;;;20.20;77.80;;;;;;5043627;28;20550;-76
2023/12/25 10:14:40;;;;;;;3.50;1.90;;;20.30;77.80;;;;;;5045973;28;20533;-75
2023/12/25 10:17:08;;;;;;;4.57;1.93;;;20.40;77.80;;;;;;5050903;28;20552;-76
2023/12/25 10:19:49;;;;;;;3.27;2.07;;;20.40;77.70;;;;;;5050826;28;20441;-76
2023/12/25 10:22:28;;;;;;;3.00;2.23;;;20.50;77.90;;;;;;5047215;28;20446;-75
2023/12/25 10:24:56;;;;;;;2.93;2.00;;;20.60;78.20;;;;;;5049824;28;20501;-76
2023/12/25 10:27:24;;;;;;;2.23;1.87;;;20.70;78.00;;;;;;5047595;28;20478;-75
2023/12/25 10:29:53;;;;;;;4.00;2.23;;;20.70;77.80;;;;;;5043086;28;20424;-75
2023/12/25 10:32:21;;;;;;;3.87;2.00;;;20.80;77.70;;;;;;5048488;28;20443;-75
2023/12/25 10:34:49;;;;;;;3.80;2.23;;;20.80;77.50;;;;;;5041377;28;20442;-75
2023/12/25 10:37:18;;;;;;;3.23;1.90;;;20.80;77.80;;;;;;5046818;28;20474;-74
2023/12/25 10:39:46;;;;;;;5.20;2.47;;;20.90;77.80;;;;;;5046638;28;20553;-74
2023/12/25 10:42:14;;;;;;;4.47;1.90;;;21.00;78.00;;;;;;5048344;28;20516;-75
2023/12/25 10:44:44;;;;;;;2.50;2.27;;;21.10;78.30;;;;;;5049855;28;20450;-75
2023/12/25 10:47:13;;;;;;;4.10;1.97;;;21.20;78.20;;;;;;5049759;28;20554;-75
2023/12/25 10:49:41;;;;;;;3.00;2.10;;;21.30;77.80;;;;;;5041550;28;20461;-75
2023/12/25 10:52:09;;;;;;;4.73;1.83;;;21.40;77.80;;;;;;5050967;28;20445;-76
2023/12/25 10:54:37;;;;;;;5.00;2.40;;;21.40;77.60;;;;;;5048937;28;20441;-76
2023/12/25 10:57:05;;;;;;;2.70;1.97;;;21.40;77.30;;;;;;5043878;28;20449;-76
2023/12/25 10:59:35;;;;;;;2.83;2.30;;;21.40;77.10;;;;;;5037706;28;20676;-75
2023/12/25 11:02:04;;;;;;;4.50;2.20;;;21.40;76.80;;;;;;5048757;28;20437;-76
2023/12/25 11:04:33;;;;;;;3.03;2.00;;;21.40;76.70;;;;;;5051598;28;20533;-76
2023/12/25 11:07:03;;;;;;;4.17;2.40;;;21.40;76.80;;;;;;5043133;28;20527;-76
2023/12/25 11:09:31;;;;;;;5.23;2.73;;;21.40;76.60;;;;;;5049551;28;20991;-76
2023/12/25 11:12:00;;;;;;;5.27;2.37;;;21.40;76.50;;;;;;5037200;28;20937;-76
2023/12/25 11:14:29;;;;;;;3.13;2.07;;;21.50;76.50;;;;;;5039746;28;20405;-76
2023/12/25 11:16:57;;;;;;;3.77;2.40;;;21.40;76.30;;;;;;5044684;28;20834;-76
2023/12/25 11:19:24;;;;;;;2.80;2.40;;;21.40;76.20;;;;;;5041720;28;20559;-75
2023/12/25 11:21:54;;;;;;;3.67;2.57;;;21.50;76.40;;;;;;5044585;28;20504;-76
2023/12/25 11:24:24;;;;;;;4.50;2.20;;;21.50;76.20;;;;;;5046394;28;20537;-75
2023/12/25 11:26:52;;;;;;;4.40;2.10;;;21.50;76.10;;;;;;5039037;28;20479;-76
2023/12/25 11:29:20;;;;;;;4.40;2.33;;;21.40;75.80;;;;;;5042108;28;20530;-75
2023/12/25 11:31:49;;;;;;;3.70;2.50;;;21.50;76.40;;;;;;5046537;28;20526;-76
2023/12/25 11:34:20;;;;;;;4.10;2.20;;;21.60;76.40;;;;;;5040099;28;20410;-77
2023/12/25 11:36:49;;;;;;;5.07;2.30;;;21.60;76.30;;;;;;5037265;28;20450;-75
2023/12/25 11:39:18;;;;;;;4.40;2.40;;;21.60;76.20;;;;;;5045409;28;20449;-75
2023/12/25 11:41:47;;;;;;;2.70;2.10;;;21.70;76.30;;;;;;5035460;28;20451;-76
2023/12/25 11:44:18;;;;;;;2.07;1.90;;;21.90;76.50;;;;;;5049704;28;20405;-75
2023/12/25 11:46:47;;;;;;;3.73;2.20;;;22.10;76.70;;;;;;5042343;28;20425;-76
2023/12/25 11:49:15;;;;;;;3.53;2.20;;;22.20;75.60;;;;;;5043476;28;20418;-76
2023/12/25 11:51:46;;;;;;;2.47;2.23;;;22.20;74.90;;;;;;5038905;28;20409;-75
2023/12/25 11:54:15;;;;;;;3.90;2.40;;;22.20;74.70;;;;;;5050000;28;20430;-75
2023/12/25 11:56:45;;;;;;;2.07;1.70;;;22.00;74.40;;;;;;5039958;28;20452;-76
2023/12/25 11:59:13;;;;;;;2.10;1.90;;;22.00;74.70;;;;;;5047697;28;20450;-74
2023/12/25 12:01:45;;;;;;;3.00;2.07;;;21.90;74.60;;;;;;5043692;28;20450;-76
2023/12/25 12:04:13;;;;;;;4.57;2.23;;;21.80;74.70;;;;;;5039295;28;20451;-75
2023/12/25 12:06:41;;;;;;;2.53;2.10;;;21.80;74.90;;;;;;5050942;28;20462;-75
2023/12/25 12:09:09;;;;;;;6.40;2.23;;;21.70;74.90;;;;;;5051529;28;20442;-74
2023/12/25 12:11:37;;;;;;;1.97;1.87;;;21.70;74.80;;;;;;5042379;28;20465;-76
2023/12/25 12:14:09;;;;;;;5.00;2.10;;;21.60;75.00;;;;;;5052444;28;20496;-76
2023/12/25 12:16:41;;;;;;;2.63;2.17;;;21.60;75.10;;;;;;5050226;28;20466;-76
2023/12/25 12:19:12;;;;;;;5.37;2.50;;;21.50;75.30;;;;;;5051351;28;20417;-76
2023/12/25 12:21:41;;;;;;;2.43;2.20;;;21.40;75.10;;;;;;5050230;28;20448;-76
2023/12/25 12:24:27;;;;;;;3.50;2.20;;;21.40;75.20;;;;;;5042772;28;20582;-75
2023/12/25 12:26:55;;;;;;;3.37;2.30;;;21.30;75.60;;;;;;5050542;28;20468;-75
2023/12/25 12:29:23;;;;;;;2.63;2.10;;;21.20;75.50;;;;;;5042968;28;20442;-76
2023/12/25 12:31:52;;;;;;;4.93;2.30;;;21.20;75.60;;;;;;5053016;28;20442;-80
2023/12/25 12:34:22;;;;;;;7.13;2.43;;;19.40;57.80;;;;;;5055991;28;20533;-80
2023/12/25 12:36:58;;;;;;;5.23;2.53;;;16.70;60.60;;;;;;5045008;28;20528;-80
2023/12/25 12:39:27;;;;;;;11.50;2.83;;;15.70;63.70;;;;;;5052437;28;20434;-79
2023/12/25 12:41:55;;;;;;;8.80;2.37;;;14.60;64.70;;;;;;5054668;28;20569;-80
2023/12/25 12:44:24;;;;;;;11.10;2.77;;;14.50;67.00;;;;;;5055828;28;20445;-76
2023/12/25 12:46:52;;;;;;;7.23;2.00;;;15.00;72.00;;;;;;5049928;28;20547;-77
2023/12/25 12:49:20;;;;;;;7.73;2.27;;;16.00;71.60;;;;;;5041191;28;20551;-77
2023/12/25 12:51:49;;;;;;;11.60;2.27;;;16.90;69.50;;;;;;5035756;28;20510;-77